sensor_id;sensor_type;location;lat;lon;timestamp;temperature;humidity
33927;DHT22;20485;50.992;5.550;2023-06-22T00:00:58;19.10;99.90
33927;DHT22;20485;50.992;5.550;2023-06-22T00:03:25;19.10;99.90
33927;DHT22;20485;50.992;5.550;2023-06-22T00:05:51;19.10;99.90
33927;DHT22;20485;50.992;5.550;2023-06-22T00:08:18;19.10;99.90
33927;DHT22;20485;50.992;5.550;2023-06-22T00:10:45;19.10;99.90
33927;DHT22;20485;50.992;5.550;2023-06-22T00:13:11;19.10;99.90
33927;DHT22;20485;50.992;5.550;2023-06-22T00:15:38;19.10;99.90
33927;DHT22;20485;50.992;5.550;2023-06-22T00:18:08;19.10;99.90
33927;DHT22;20485;50.992;5.550;2023-06-22T00:20:34;19.10;99.90
33927;DHT22;20485;50.992;5.550;2023-06-22T00:23:03;19.10;99.90
33927;DHT22;20485;50.992;5.550;2023-06-22T00:25:37;19.10;99.90
33927;DHT22;20485;50.992;5.550;2023-06-22T00:28:04;19.00;99.90
33927;DHT22;20485;50.992;5.550;2023-06-22T00:30:31;18.90;99.90
33927;DHT22;20485;50.992;5.550;2023-06-22T00:32:58;19.00;99.90
33927;DHT22;20485;50.992;5.550;2023-06-22T00:35:24;18.90;99.90
33927;DHT22;20485;50.992;5.550;2023-06-22T00:37:58;18.90;99.90
33927;DHT22;20485;50.992;5.550;2023-06-22T00:40:32;18.80;99.90
33927;DHT22;20485;50.992;5.550;2023-06-22T00:42:58;18.80;99.90
33927;DHT22;20485;50.992;5.550;2023-06-22T00:45:24;18.80;99.90
33927;DHT22;20485;50.992;5.550;2023-06-22T00:47:52;18.90;99.90
33927;DHT22;20485;50.992;5.550;2023-06-22T00:50:20;18.90;99.90
33927;DHT22;20485;50.992;5.550;2023-06-22T00:52:53;19.00;99.90
33927;DHT22;20485;50.992;5.550;2023-06-22T00:55:23;19.00;99.90
33927;DHT22;20485;50.992;5.550;2023-06-22T00:57:49;19.00;99.90
33927;DHT22;20485;50.992;5.550;2023-06-22T01:00:16;19.10;99.90
33927;DHT22;20485;50.992;5.550;2023-06-22T01:02:46;19.20;99.90
33927;DHT22;20485;50.992;5.550;2023-06-22T01:05:13;19.20;99.90
33927;DHT22;20485;50.992;5.550;2023-06-22T01:07:45;19.30;99.90
33927;DHT22;20485;50.992;5.550;2023-06-22T01:13:11;19.40;99.90
33927;DHT22;20485;50.992;5.550;2023-06-22T01:15:48;19.40;99.90
33927;DHT22;20485;50.992;5.550;2023-06-22T01:18:16;19.30;99.90
33927;DHT22;20485;50.992;5.550;2023-06-22T01:20:42;19.40;99.90
33927;DHT22;20485;50.992;5.550;2023-06-22T01:28:59;19.40;99.90
33927;DHT22;20485;50.992;5.550;2023-06-22T01:31:26;19.30;99.90
33927;DHT22;20485;50.992;5.550;2023-06-22T01:33:58;19.30;99.90
33927;DHT22;20485;50.992;5.550;2023-06-22T01:36:25;19.30;99.90
33927;DHT22;20485;50.992;5.550;2023-06-22T01:38:52;19.30;99.90
33927;DHT22;20485;50.992;5.550;2023-06-22T01:41:19;19.30;99.90
33927;DHT22;20485;50.992;5.550;2023-06-22T01:43:46;19.30;99.90
33927;DHT22;20485;50.992;5.550;2023-06-22T01:46:12;19.30;99.90
33927;DHT22;20485;50.992;5.550;2023-06-22T01:48:39;19.30;99.90
33927;DHT22;20485;50.992;5.550;2023-06-22T01:51:05;19.30;99.90
33927;DHT22;20485;50.992;5.550;2023-06-22T01:53:31;19.20;99.90
33927;DHT22;20485;50.992;5.550;2023-06-22T01:55:57;19.20;99.90
33927;DHT22;20485;50.992;5.550;2023-06-22T01:58:25;19.10;99.90
33927;DHT22;20485;50.992;5.550;2023-06-22T02:01:10;19.00;99.90
33927;DHT22;20485;50.992;5.550;2023-06-22T02:03:41;19.00;99.90
33927;DHT22;20485;50.992;5.550;2023-06-22T02:06:16;19.00;99.90
33927;DHT22;20485;50.992;5.550;2023-06-22T02:08:55;19.00;99.90
33927;DHT22;20485;50.992;5.550;2023-06-22T02:11:23;19.00;99.90
33927;DHT22;20485;50.992;5.550;2023-06-22T02:13:51;19.00;99.90
33927;DHT22;20485;50.992;5.550;2023-06-22T02:16:18;19.00;99.90
33927;DHT22;20485;50.992;5.550;2023-06-22T02:18:51;19.00;99.90
33927;DHT22;20485;50.992;5.550;2023-06-22T02:21:20;19.00;99.90
33927;DHT22;20485;50.992;5.550;2023-06-22T02:23:46;19.00;99.90
33927;DHT22;20485;50.992;5.550;2023-06-22T02:26:12;19.00;99.90
33927;DHT22;20485;50.992;5.550;2023-06-22T02:28:37;19.00;99.90
33927;DHT22;20485;50.992;5.550;2023-06-22T02:31:03;19.00;99.90
33927;DHT22;20485;50.992;5.550;2023-06-22T02:33:29;19.00;99.90
33927;DHT22;20485;50.992;5.550;2023-06-22T02:35:55;19.00;99.90
33927;DHT22;20485;50.992;5.550;2023-06-22T02:38:20;19.00;99.90
33927;DHT22;20485;50.992;5.550;2023-06-22T02:40:46;19.00;99.90
33927;DHT22;20485;50.992;5.550;2023-06-22T02:43:12;19.00;99.90
33927;DHT22;20485;50.992;5.550;2023-06-22T02:45:38;19.00;99.90
33927;DHT22;20485;50.992;5.550;2023-06-22T02:48:04;19.00;99.90
33927;DHT22;20485;50.992;5.550;2023-06-22T02:50:30;18.90;99.90
33927;DHT22;20485;50.992;5.550;2023-06-22T02:52:56;18.90;99.90
33927;DHT22;20485;50.992;5.550;2023-06-22T02:55:21;19.00;99.90
33927;DHT22;20485;50.992;5.550;2023-06-22T02:57:47;19.00;99.90
33927;DHT22;20485;50.992;5.550;2023-06-22T03:00:14;19.00;99.90
33927;DHT22;20485;50.992;5.550;2023-06-22T03:02:46;19.00;99.90
33927;DHT22;20485;50.992;5.550;2023-06-22T03:05:15;18.90;99.90
33927;DHT22;20485;50.992;5.550;2023-06-22T03:07:46;18.80;99.90
33927;DHT22;20485;50.992;5.550;2023-06-22T03:10:13;18.80;99.90
33927;DHT22;20485;50.992;5.550;2023-06-22T03:12:40;18.70;99.90
33927;DHT22;20485;50.992;5.550;2023-06-22T03:15:10;18.70;99.90
33927;DHT22;20485;50.992;5.550;2023-06-22T03:17:37;18.70;99.90
33927;DHT22;20485;50.992;5.550;2023-06-22T03:20:04;18.70;99.90
33927;DHT22;20485;50.992;5.550;2023-06-22T03:22:40;18.70;99.90
33927;DHT22;20485;50.992;5.550;2023-06-22T03:25:07;18.70;99.90
33927;DHT22;20485;50.992;5.550;2023-06-22T03:27:36;18.70;99.90
33927;DHT22;20485;50.992;5.550;2023-06-22T03:30:02;18.70;99.90
33927;DHT22;20485;50.992;5.550;2023-06-22T03:32:28;18.70;99.90
33927;DHT22;20485;50.992;5.550;2023-06-22T03:34:54;18.70;99.90
33927;DHT22;20485;50.992;5.550;2023-06-22T03:37:19;18.70;99.90
33927;DHT22;20485;50.992;5.550;2023-06-22T03:39:45;18.70;99.90
33927;DHT22;20485;50.992;5.550;2023-06-22T03:42:11;18.70;99.90
33927;DHT22;20485;50.992;5.550;2023-06-22T03:44:36;18.70;99.90
33927;DHT22;20485;50.992;5.550;2023-06-22T03:47:05;18.70;99.90
33927;DHT22;20485;50.992;5.550;2023-06-22T03:49:33;18.70;99.90
33927;DHT22;20485;50.992;5.550;2023-06-22T03:52:00;18.70;99.90
33927;DHT22;20485;50.992;5.550;2023-06-22T03:54:27;18.80;99.90
33927;DHT22;20485;50.992;5.550;2023-06-22T03:56:53;18.70;99.90
33927;DHT22;20485;50.992;5.550;2023-06-22T03:59:18;18.80;99.90
33927;DHT22;20485;50.992;5.550;2023-06-22T04:01:44;18.70;99.90
33927;DHT22;20485;50.992;5.550;2023-06-22T04:04:10;18.80;99.90
33927;DHT22;20485;50.992;5.550;2023-06-22T04:06:36;18.80;99.90
33927;DHT22;20485;50.992;5.550;2023-06-22T04:09:02;18.80;99.90
33927;DHT22;20485;50.992;5.550;2023-06-22T04:11:27;18.80;99.90
33927;DHT22;20485;50.992;5.550;2023-06-22T04:13:53;18.80;99.90
33927;DHT22;20485;50.992;5.550;2023-06-22T04:16:19;18.80;99.90
33927;DHT22;20485;50.992;5.550;2023-06-22T04:18:44;18.80;99.90
33927;DHT22;20485;50.992;5.550;2023-06-22T04:21:11;18.90;99.90
33927;DHT22;20485;50.992;5.550;2023-06-22T04:23:36;18.80;99.90
33927;DHT22;20485;50.992;5.550;2023-06-22T04:26:02;18.80;99.90
33927;DHT22;20485;50.992;5.550;2023-06-22T04:28:27;18.80;99.90
33927;DHT22;20485;50.992;5.550;2023-06-22T04:30:53;18.90;99.90
33927;DHT22;20485;50.992;5.550;2023-06-22T04:33:23;18.80;99.90
33927;DHT22;20485;50.992;5.550;2023-06-22T04:35:49;18.90;99.90
33927;DHT22;20485;50.992;5.550;2023-06-22T04:38:16;18.80;99.90
33927;DHT22;20485;50.992;5.550;2023-06-22T04:40:42;18.80;99.90
33927;DHT22;20485;50.992;5.550;2023-06-22T04:43:07;18.80;99.90
33927;DHT22;20485;50.992;5.550;2023-06-22T04:45:35;18.90;99.90
33927;DHT22;20485;50.992;5.550;2023-06-22T04:48:04;18.80;99.90
33927;DHT22;20485;50.992;5.550;2023-06-22T04:50:30;18.80;99.90
33927;DHT22;20485;50.992;5.550;2023-06-22T04:52:55;18.80;99.90
33927;DHT22;20485;50.992;5.550;2023-06-22T04:55:21;18.80;99.90
33927;DHT22;20485;50.992;5.550;2023-06-22T04:57:48;18.80;99.90
33927;DHT22;20485;50.992;5.550;2023-06-22T05:00:23;18.70;99.90
33927;DHT22;20485;50.992;5.550;2023-06-22T05:02:49;18.80;99.90
33927;DHT22;20485;50.992;5.550;2023-06-22T05:05:15;18.80;99.90
33927;DHT22;20485;50.992;5.550;2023-06-22T05:07:45;18.80;99.90
33927;DHT22;20485;50.992;5.550;2023-06-22T05:10:14;18.80;99.90
33927;DHT22;20485;50.992;5.550;2023-06-22T05:12:40;18.80;99.90
33927;DHT22;20485;50.992;5.550;2023-06-22T05:15:10;18.80;99.90
33927;DHT22;20485;50.992;5.550;2023-06-22T05:17:36;18.80;99.90
33927;DHT22;20485;50.992;5.550;2023-06-22T05:20:02;18.70;99.90
33927;DHT22;20485;50.992;5.550;2023-06-22T05:22:31;18.80;99.90
33927;DHT22;20485;50.992;5.550;2023-06-22T05:24:57;18.80;99.90
33927;DHT22;20485;50.992;5.550;2023-06-22T05:27:23;18.90;99.90
33927;DHT22;20485;50.992;5.550;2023-06-22T05:29:48;18.90;99.90
33927;DHT22;20485;50.992;5.550;2023-06-22T05:32:14;18.80;99.90
33927;DHT22;20485;50.992;5.550;2023-06-22T05:34:40;18.80;99.90
33927;DHT22;20485;50.992;5.550;2023-06-22T05:37:05;18.80;99.90
33927;DHT22;20485;50.992;5.550;2023-06-22T05:39:31;18.80;99.90
33927;DHT22;20485;50.992;5.550;2023-06-22T05:41:57;18.80;99.90
33927;DHT22;20485;50.992;5.550;2023-06-22T05:44:23;18.90;99.90
33927;DHT22;20485;50.992;5.550;2023-06-22T05:46:48;18.90;99.90
33927;DHT22;20485;50.992;5.550;2023-06-22T05:49:14;18.90;99.90
33927;DHT22;20485;50.992;5.550;2023-06-22T05:51:41;19.00;99.90
33927;DHT22;20485;50.992;5.550;2023-06-22T05:54:07;19.10;99.90
33927;DHT22;20485;50.992;5.550;2023-06-22T05:56:35;19.10;99.90
33927;DHT22;20485;50.992;5.550;2023-06-22T05:59:01;19.00;99.90
33927;DHT22;20485;50.992;5.550;2023-06-22T06:01:27;19.00;99.90
33927;DHT22;20485;50.992;5.550;2023-06-22T06:03:52;18.90;99.90
33927;DHT22;20485;50.992;5.550;2023-06-22T06:06:18;18.90;99.90
33927;DHT22;20485;50.992;5.550;2023-06-22T06:08:54;18.80;99.90
33927;DHT22;20485;50.992;5.550;2023-06-22T06:11:20;18.80;99.90
33927;DHT22;20485;50.992;5.550;2023-06-22T06:13:46;18.60;99.90
33927;DHT22;20485;50.992;5.550;2023-06-22T06:16:11;18.50;99.90
33927;DHT22;20485;50.992;5.550;2023-06-22T06:18:37;18.60;99.90
33927;DHT22;20485;50.992;5.550;2023-06-22T06:21:03;18.60;99.90
33927;DHT22;20485;50.992;5.550;2023-06-22T06:23:28;18.60;99.90
33927;DHT22;20485;50.992;5.550;2023-06-22T06:25:54;18.50;99.90
33927;DHT22;20485;50.992;5.550;2023-06-22T06:28:20;18.30;99.90
33927;DHT22;20485;50.992;5.550;2023-06-22T06:30:45;18.40;99.90
33927;DHT22;20485;50.992;5.550;2023-06-22T06:33:13;18.40;99.90
33927;DHT22;20485;50.992;5.550;2023-06-22T06:35:38;18.40;99.90
33927;DHT22;20485;50.992;5.550;2023-06-22T06:38:04;18.40;99.90
33927;DHT22;20485;50.992;5.550;2023-06-22T06:40:30;18.30;99.90
33927;DHT22;20485;50.992;5.550;2023-06-22T06:42:55;18.30;99.90
33927;DHT22;20485;50.992;5.550;2023-06-22T06:45:23;18.40;99.90
33927;DHT22;20485;50.992;5.550;2023-06-22T06:47:50;18.30;99.90
33927;DHT22;20485;50.992;5.550;2023-06-22T06:50:16;18.30;99.90
33927;DHT22;20485;50.992;5.550;2023-06-22T06:52:42;18.40;99.90
33927;DHT22;20485;50.992;5.550;2023-06-22T06:55:08;18.50;99.90
33927;DHT22;20485;50.992;5.550;2023-06-22T06:57:38;18.50;99.90
33927;DHT22;20485;50.992;5.550;2023-06-22T07:00:09;18.50;99.90
33927;DHT22;20485;50.992;5.550;2023-06-22T07:02:51;18.50;99.90
33927;DHT22;20485;50.992;5.550;2023-06-22T07:05:35;18.50;99.90
33927;DHT22;20485;50.992;5.550;2023-06-22T07:08:02;18.60;99.90
33927;DHT22;20485;50.992;5.550;2023-06-22T07:10:29;18.80;99.90
33927;DHT22;20485;50.992;5.550;2023-06-22T07:12:54;18.70;99.90
33927;DHT22;20485;50.992;5.550;2023-06-22T07:15:20;18.90;99.90
33927;DHT22;20485;50.992;5.550;2023-06-22T07:17:46;19.20;99.90
33927;DHT22;20485;50.992;5.550;2023-06-22T07:20:12;19.40;99.90
33927;DHT22;20485;50.992;5.550;2023-06-22T07:22:41;19.60;99.90
33927;DHT22;20485;50.992;5.550;2023-06-22T07:25:08;19.80;99.90
33927;DHT22;20485;50.992;5.550;2023-06-22T07:27:44;20.00;99.90
33927;DHT22;20485;50.992;5.550;2023-06-22T07:30:11;20.40;99.90
33927;DHT22;20485;50.992;5.550;2023-06-22T07:32:37;20.70;99.90
33927;DHT22;20485;50.992;5.550;2023-06-22T07:35:03;20.40;99.90
33927;DHT22;20485;50.992;5.550;2023-06-22T07:37:30;20.30;99.90
33927;DHT22;20485;50.992;5.550;2023-06-22T07:39:56;20.50;99.90
33927;DHT22;20485;50.992;5.550;2023-06-22T07:42:26;20.40;99.90
33927;DHT22;20485;50.992;5.550;2023-06-22T07:44:51;20.40;99.90
33927;DHT22;20485;50.992;5.550;2023-06-22T07:47:17;20.50;99.90
33927;DHT22;20485;50.992;5.550;2023-06-22T07:49:45;20.70;99.90
33927;DHT22;20485;50.992;5.550;2023-06-22T07:52:11;20.50;99.90
33927;DHT22;20485;50.992;5.550;2023-06-22T07:54:37;20.50;99.90
33927;DHT22;20485;50.992;5.550;2023-06-22T07:57:03;20.50;99.90
33927;DHT22;20485;50.992;5.550;2023-06-22T07:59:28;20.50;99.90
33927;DHT22;20485;50.992;5.550;2023-06-22T08:01:55;20.50;99.90
33927;DHT22;20485;50.992;5.550;2023-06-22T08:04:20;20.60;99.90
33927;DHT22;20485;50.992;5.550;2023-06-22T08:06:46;20.70;99.90
33927;DHT22;20485;50.992;5.550;2023-06-22T08:09:12;20.80;99.90
33927;DHT22;20485;50.992;5.550;2023-06-22T08:11:38;20.80;99.90
33927;DHT22;20485;50.992;5.550;2023-06-22T08:14:03;20.80;99.90
33927;DHT22;20485;50.992;5.550;2023-06-22T08:16:29;21.10;99.90
33927;DHT22;20485;50.992;5.550;2023-06-22T08:18:55;21.40;99.90
33927;DHT22;20485;50.992;5.550;2023-06-22T08:21:20;21.40;99.90
33927;DHT22;20485;50.992;5.550;2023-06-22T08:23:46;21.50;99.90
33927;DHT22;20485;50.992;5.550;2023-06-22T08:26:12;21.40;99.90
33927;DHT22;20485;50.992;5.550;2023-06-22T08:28:37;21.40;99.90
33927;DHT22;20485;50.992;5.550;2023-06-22T08:31:03;21.80;99.90
33927;DHT22;20485;50.992;5.550;2023-06-22T08:33:29;21.60;99.90
33927;DHT22;20485;50.992;5.550;2023-06-22T08:35:56;21.70;99.90
33927;DHT22;20485;50.992;5.550;2023-06-22T08:38:22;21.50;99.90
33927;DHT22;20485;50.992;5.550;2023-06-22T08:40:48;21.70;99.90
33927;DHT22;20485;50.992;5.550;2023-06-22T08:43:14;21.90;99.90
33927;DHT22;20485;50.992;5.550;2023-06-22T08:45:40;21.90;99.90
33927;DHT22;20485;50.992;5.550;2023-06-22T08:48:05;21.90;99.90
33927;DHT22;20485;50.992;5.550;2023-06-22T08:50:31;22.00;99.90
33927;DHT22;20485;50.992;5.550;2023-06-22T08:52:57;22.00;99.90
33927;DHT22;20485;50.992;5.550;2023-06-22T08:55:22;22.40;99.90
33927;DHT22;20485;50.992;5.550;2023-06-22T08:57:48;22.30;99.90
33927;DHT22;20485;50.992;5.550;2023-06-22T09:00:14;22.50;99.90
33927;DHT22;20485;50.992;5.550;2023-06-22T09:02:44;22.80;99.90
33927;DHT22;20485;50.992;5.550;2023-06-22T09:05:10;22.60;99.90
33927;DHT22;20485;50.992;5.550;2023-06-22T09:07:36;22.40;99.90
33927;DHT22;20485;50.992;5.550;2023-06-22T09:10:01;22.00;99.90
33927;DHT22;20485;50.992;5.550;2023-06-22T09:12:30;22.20;99.90
33927;DHT22;20485;50.992;5.550;2023-06-22T09:14:56;22.30;99.90
33927;DHT22;20485;50.992;5.550;2023-06-22T09:17:22;22.30;99.90
33927;DHT22;20485;50.992;5.550;2023-06-22T09:19:48;22.00;99.90
33927;DHT22;20485;50.992;5.550;2023-06-22T09:22:14;22.10;99.90
33927;DHT22;20485;50.992;5.550;2023-06-22T09:24:40;22.00;99.90
33927;DHT22;20485;50.992;5.550;2023-06-22T09:27:06;22.30;99.90
33927;DHT22;20485;50.992;5.550;2023-06-22T09:29:31;22.40;99.90
33927;DHT22;20485;50.992;5.550;2023-06-22T09:32:00;22.30;99.90
33927;DHT22;20485;50.992;5.550;2023-06-22T09:34:26;22.30;99.90
33927;DHT22;20485;50.992;5.550;2023-06-22T09:36:51;22.60;99.90
33927;DHT22;20485;50.992;5.550;2023-06-22T09:39:20;22.50;99.90
33927;DHT22;20485;50.992;5.550;2023-06-22T09:41:46;22.60;99.90
33927;DHT22;20485;50.992;5.550;2023-06-22T09:44:11;22.70;99.90
33927;DHT22;20485;50.992;5.550;2023-06-22T09:46:37;22.40;99.90
33927;DHT22;20485;50.992;5.550;2023-06-22T09:49:03;22.30;99.90
33927;DHT22;20485;50.992;5.550;2023-06-22T09:51:28;22.40;99.90
33927;DHT22;20485;50.992;5.550;2023-06-22T09:53:54;22.20;99.90
33927;DHT22;20485;50.992;5.550;2023-06-22T09:56:20;22.10;99.90
33927;DHT22;20485;50.992;5.550;2023-06-22T09:58:46;21.80;99.90
33927;DHT22;20485;50.992;5.550;2023-06-22T10:01:13;21.90;99.90
33927;DHT22;20485;50.992;5.550;2023-06-22T10:03:42;21.80;99.90
33927;DHT22;20485;50.992;5.550;2023-06-22T10:06:08;21.70;99.90
33927;DHT22;20485;50.992;5.550;2023-06-22T10:08:34;21.70;99.90
33927;DHT22;20485;50.992;5.550;2023-06-22T10:11:00;21.70;99.90
33927;DHT22;20485;50.992;5.550;2023-06-22T10:13:26;21.70;99.90
33927;DHT22;20485;50.992;5.550;2023-06-22T10:15:51;21.60;99.90
33927;DHT22;20485;50.992;5.550;2023-06-22T10:18:18;21.60;99.90
33927;DHT22;20485;50.992;5.550;2023-06-22T10:20:47;21.60;99.90
33927;DHT22;20485;50.992;5.550;2023-06-22T10:23:12;21.50;99.90
33927;DHT22;20485;50.992;5.550;2023-06-22T10:25:38;21.40;99.90
33927;DHT22;20485;50.992;5.550;2023-06-22T10:28:04;21.40;99.90
33927;DHT22;20485;50.992;5.550;2023-06-22T10:30:29;21.30;99.90
33927;DHT22;20485;50.992;5.550;2023-06-22T10:32:55;21.20;99.90
33927;DHT22;20485;50.992;5.550;2023-06-22T10:35:21;21.10;99.90
33927;DHT22;20485;50.992;5.550;2023-06-22T10:37:47;21.00;99.90
33927;DHT22;20485;50.992;5.550;2023-06-22T10:40:13;20.90;99.90
33927;DHT22;20485;50.992;5.550;2023-06-22T10:42:40;20.80;99.90
33927;DHT22;20485;50.992;5.550;2023-06-22T10:45:06;20.70;99.90
33927;DHT22;20485;50.992;5.550;2023-06-22T10:47:32;20.80;99.90
33927;DHT22;20485;50.992;5.550;2023-06-22T10:49:58;20.80;99.90
33927;DHT22;20485;50.992;5.550;2023-06-22T10:52:23;20.70;99.90
33927;DHT22;20485;50.992;5.550;2023-06-22T10:54:49;20.70;99.90
33927;DHT22;20485;50.992;5.550;2023-06-22T10:57:15;20.60;99.90
33927;DHT22;20485;50.992;5.550;2023-06-22T10:59:40;20.60;99.90
33927;DHT22;20485;50.992;5.550;2023-06-22T11:02:06;20.70;99.90
33927;DHT22;20485;50.992;5.550;2023-06-22T11:04:32;20.80;99.90
33927;DHT22;20485;50.992;5.550;2023-06-22T11:06:57;20.80;99.90
33927;DHT22;20485;50.992;5.550;2023-06-22T11:09:23;20.90;99.90
33927;DHT22;20485;50.992;5.550;2023-06-22T11:11:51;20.90;99.90
33927;DHT22;20485;50.992;5.550;2023-06-22T11:14:19;21.00;99.90
33927;DHT22;20485;50.992;5.550;2023-06-22T11:16:44;21.10;99.90
33927;DHT22;20485;50.992;5.550;2023-06-22T11:19:11;21.30;99.90
33927;DHT22;20485;50.992;5.550;2023-06-22T11:21:37;21.40;99.90
33927;DHT22;20485;50.992;5.550;2023-06-22T11:24:03;21.10;99.90
33927;DHT22;20485;50.992;5.550;2023-06-22T11:26:29;20.70;99.90
33927;DHT22;20485;50.992;5.550;2023-06-22T11:28:56;20.70;99.90
33927;DHT22;20485;50.992;5.550;2023-06-22T11:31:22;20.90;99.90
33927;DHT22;20485;50.992;5.550;2023-06-22T11:33:47;21.20;99.90
33927;DHT22;20485;50.992;5.550;2023-06-22T11:36:14;21.10;99.90
33927;DHT22;20485;50.992;5.550;2023-06-22T11:38:40;21.30;99.90
33927;DHT22;20485;50.992;5.550;2023-06-22T11:41:09;21.50;99.90
33927;DHT22;20485;50.992;5.550;2023-06-22T11:43:36;21.40;99.90
33927;DHT22;20485;50.992;5.550;2023-06-22T11:46:06;21.50;99.90
33927;DHT22;20485;50.992;5.550;2023-06-22T11:48:31;21.40;99.90
33927;DHT22;20485;50.992;5.550;2023-06-22T11:50:58;21.40;99.90
33927;DHT22;20485;50.992;5.550;2023-06-22T11:53:26;21.40;99.90
33927;DHT22;20485;50.992;5.550;2023-06-22T11:55:52;21.30;99.90
33927;DHT22;20485;50.992;5.550;2023-06-22T11:58:21;21.30;99.90
33927;DHT22;20485;50.992;5.550;2023-06-22T12:00:47;21.40;99.90
33927;DHT22;20485;50.992;5.550;2023-06-22T12:03:13;21.30;99.90
33927;DHT22;20485;50.992;5.550;2023-06-22T12:05:40;21.00;99.90
33927;DHT22;20485;50.992;5.550;2023-06-22T12:08:06;21.10;99.90
33927;DHT22;20485;50.992;5.550;2023-06-22T12:10:32;20.80;99.90
33927;DHT22;20485;50.992;5.550;2023-06-22T12:12:57;20.80;99.90
33927;DHT22;20485;50.992;5.550;2023-06-22T12:15:25;20.70;99.90
33927;DHT22;20485;50.992;5.550;2023-06-22T12:17:51;20.70;99.90
33927;DHT22;20485;50.992;5.550;2023-06-22T12:20:17;20.70;99.90
33927;DHT22;20485;50.992;5.550;2023-06-22T12:22:43;20.70;99.90
33927;DHT22;20485;50.992;5.550;2023-06-22T12:25:09;20.60;99.90
33927;DHT22;20485;50.992;5.550;2023-06-22T12:27:35;20.60;99.90
33927;DHT22;20485;50.992;5.550;2023-06-22T12:30:02;20.60;99.90
33927;DHT22;20485;50.992;5.550;2023-06-22T12:32:28;20.60;99.90
33927;DHT22;20485;50.992;5.550;2023-06-22T12:34:54;20.50;99.90
33927;DHT22;20485;50.992;5.550;2023-06-22T12:37:19;20.40;99.90
33927;DHT22;20485;50.992;5.550;2023-06-22T12:39:45;20.10;99.90
33927;DHT22;20485;50.992;5.550;2023-06-22T12:42:11;20.30;99.90
33927;DHT22;20485;50.992;5.550;2023-06-22T12:44:40;20.30;99.90
33927;DHT22;20485;50.992;5.550;2023-06-22T12:47:06;20.20;99.90
33927;DHT22;20485;50.992;5.550;2023-06-22T12:49:32;20.20;99.90
33927;DHT22;20485;50.992;5.550;2023-06-22T12:51:58;20.10;99.90
33927;DHT22;20485;50.992;5.550;2023-06-22T12:54:23;20.00;99.90
33927;DHT22;20485;50.992;5.550;2023-06-22T12:56:50;20.10;99.90
33927;DHT22;20485;50.992;5.550;2023-06-22T12:59:16;19.90;99.90
33927;DHT22;20485;50.992;5.550;2023-06-22T13:01:43;19.90;99.90
33927;DHT22;20485;50.992;5.550;2023-06-22T13:04:09;19.90;99.90
33927;DHT22;20485;50.992;5.550;2023-06-22T13:06:36;19.90;99.90
33927;DHT22;20485;50.992;5.550;2023-06-22T13:09:02;19.80;99.90
33927;DHT22;20485;50.992;5.550;2023-06-22T13:11:30;19.80;99.90
33927;DHT22;20485;50.992;5.550;2023-06-22T13:13:56;19.70;99.90
33927;DHT22;20485;50.992;5.550;2023-06-22T13:16:21;19.70;99.90
33927;DHT22;20485;50.992;5.550;2023-06-22T13:18:47;19.60;99.90
33927;DHT22;20485;50.992;5.550;2023-06-22T13:21:13;19.50;99.90
33927;DHT22;20485;50.992;5.550;2023-06-22T13:23:39;19.50;99.90
33927;DHT22;20485;50.992;5.550;2023-06-22T13:26:05;19.40;99.90
33927;DHT22;20485;50.992;5.550;2023-06-22T13:28:31;19.40;99.90
33927;DHT22;20485;50.992;5.550;2023-06-22T13:30:56;19.30;99.90
33927;DHT22;20485;50.992;5.550;2023-06-22T13:33:22;19.30;99.90
33927;DHT22;20485;50.992;5.550;2023-06-22T13:35:48;19.30;99.90
33927;DHT22;20485;50.992;5.550;2023-06-22T13:38:13;19.20;99.90
33927;DHT22;20485;50.992;5.550;2023-06-22T13:40:39;19.30;99.90
33927;DHT22;20485;50.992;5.550;2023-06-22T13:43:05;19.20;99.90
33927;DHT22;20485;50.992;5.550;2023-06-22T13:45:30;19.20;99.90
33927;DHT22;20485;50.992;5.550;2023-06-22T13:47:56;19.20;99.90
33927;DHT22;20485;50.992;5.550;2023-06-22T13:50:22;19.10;99.90
33927;DHT22;20485;50.992;5.550;2023-06-22T13:52:47;19.10;99.90
33927;DHT22;20485;50.992;5.550;2023-06-22T13:55:13;19.00;99.90
33927;DHT22;20485;50.992;5.550;2023-06-22T13:57:40;19.00;99.90
33927;DHT22;20485;50.992;5.550;2023-06-22T14:00:06;18.90;99.90
33927;DHT22;20485;50.992;5.550;2023-06-22T14:02:33;18.80;99.90
33927;DHT22;20485;50.992;5.550;2023-06-22T14:04:59;18.80;99.90
33927;DHT22;20485;50.992;5.550;2023-06-22T14:07:25;18.80;99.90
33927;DHT22;20485;50.992;5.550;2023-06-22T14:09:50;18.70;99.90
33927;DHT22;20485;50.992;5.550;2023-06-22T14:12:17;18.60;99.90
33927;DHT22;20485;50.992;5.550;2023-06-22T14:14:45;18.60;99.90
33927;DHT22;20485;50.992;5.550;2023-06-22T14:17:11;18.60;99.90
33927;DHT22;20485;50.992;5.550;2023-06-22T14:19:37;18.60;99.90
33927;DHT22;20485;50.992;5.550;2023-06-22T14:22:03;18.60;99.90
33927;DHT22;20485;50.992;5.550;2023-06-22T14:24:29;18.60;99.90
33927;DHT22;20485;50.992;5.550;2023-06-22T14:26:55;18.50;99.90
33927;DHT22;20485;50.992;5.550;2023-06-22T14:29:21;18.50;99.90
33927;DHT22;20485;50.992;5.550;2023-06-22T14:31:48;18.40;99.90
33927;DHT22;20485;50.992;5.550;2023-06-22T14:39:25;18.20;99.90
33927;DHT22;20485;50.992;5.550;2023-06-22T14:41:51;18.10;99.90
33927;DHT22;20485;50.992;5.550;2023-06-22T14:44:16;18.00;99.90
33927;DHT22;20485;50.992;5.550;2023-06-22T14:46:42;17.80;99.90
33927;DHT22;20485;50.992;5.550;2023-06-22T14:49:08;18.00;99.90
33927;DHT22;20485;50.992;5.550;2023-06-22T14:51:34;17.90;99.90
33927;DHT22;20485;50.992;5.550;2023-06-22T14:53:59;17.80;99.90
33927;DHT22;20485;50.992;5.550;2023-06-22T14:56:25;17.80;99.90
33927;DHT22;20485;50.992;5.550;2023-06-22T14:58:50;17.70;99.90
33927;DHT22;20485;50.992;5.550;2023-06-22T15:01:17;17.60;99.90
33927;DHT22;20485;50.992;5.550;2023-06-22T15:03:42;17.60;99.90
33927;DHT22;20485;50.992;5.550;2023-06-22T15:06:08;17.50;99.90
33927;DHT22;20485;50.992;5.550;2023-06-22T15:08:36;17.50;99.90
33927;DHT22;20485;50.992;5.550;2023-06-22T15:11:02;17.40;99.90
33927;DHT22;20485;50.992;5.550;2023-06-22T15:13:28;17.40;99.90
33927;DHT22;20485;50.992;5.550;2023-06-22T15:15:55;17.40;99.90
33927;DHT22;20485;50.992;5.550;2023-06-22T15:18:21;17.40;99.90
33927;DHT22;20485;50.992;5.550;2023-06-22T15:20:46;17.30;99.90
33927;DHT22;20485;50.992;5.550;2023-06-22T15:23:13;17.30;99.90
33927;DHT22;20485;50.992;5.550;2023-06-22T15:25:39;17.30;99.90
33927;DHT22;20485;50.992;5.550;2023-06-22T15:28:05;17.20;99.90
33927;DHT22;20485;50.992;5.550;2023-06-22T15:30:30;17.20;99.90
33927;DHT22;20485;50.992;5.550;2023-06-22T15:32:57;17.20;99.90
33927;DHT22;20485;50.992;5.550;2023-06-22T15:35:23;17.20;99.90
33927;DHT22;20485;50.992;5.550;2023-06-22T15:37:49;17.20;99.90
33927;DHT22;20485;50.992;5.550;2023-06-22T15:40:16;17.20;99.90